Alagir, Russia
Current Conditions -  °F | °C
As of 9:00 AM on Thursday 23 Oct 2014 (Local Time) from URMN Reporting Station
Few Clouds Few Clouds  
Wind Chill: 61°   Ceiling: Unl
Heat Index: 61°   Visibility: 6mi
Dew Point: 37°   Wind: 0mph
Humidity: 42%   Direction: NA
Pressure: 29.97"   Gusts: NA
Location:  42.97°N, 44.21°E
Report Text: URMN 230600Z 00000MPS 9999 FEW260 16/03 Q1015 NOSIG RMK QFE724SC07
Loading
Personal Weather Stations






























Interactive Weather Map
Tropical Storm Tracking
New forecast layout! Learn more

10-Day Weather Forecast

Advertisements
Track Severe Weather on mobile